Winter Park, Colorado
Current Conditions -  °F | °C
As of 8:54 AM on Sunday 23 Nov 2014 (Local Time) from K0CO Reporting Station
Heavy Snow Heavy Snow  
Wind Chill: -21°   Ceiling: 300
Heat Index:   Visibility: 0mi
Dew Point:   Wind: 36mph
Humidity: 85%   Direction: 310°NW
Pressure: 29.71"   Gusts: NA
Location:  39.89°N, 105.76°W
Report Text: K0CO 231554Z AUTO 31031KT M1/4SM +SN OVC003 M15/M17 A2971 RMK AO2
Loading
Personal Weather Stations






























Interactive Weather Map New forecast layout! Learn more

10-Day Weather Forecast

Advertisements
Track Severe Weather on mobile